Latest Coastal Weather Observations for Mardie

IDW60701

Issued at 12:15 am WST Saturday 30 August 2014 (issued every 10 minutes, with the page automatically refreshed every 10 minutes)

About coastal observations | Map of coastal stations | Coastal observations for WA | Marine services | Other Formats
Station Details ID: 005008 Name: MARDIE Lat: -21.19 Lon: 115.98 Height: 11.0 m
Data from the previous 72 hours. | See also: Recent months at Mardie
Date/Time
WST
Temp

°C
Wind Pressure Rain
since 9am
mm
Weather Cloud Vis
km
Sea
Height
m
Swell
Dir
 
Speed
knots
Gust
knots
hPa Trend Height
m
Period
s
Dir
30/12:00am 15.4 SE 6 6 1017.5 - 0.0 - - - - - - -
 
Date/Time
WST
Temp

°C
Wind Pressure Rain
since 9am
mm
Weather Cloud Vis
km
Sea
Height
m
Swell
Dir
 
Speed
knots
Gust
knots
hPa Trend Height
m
Period
s
Dir
29/11:30pm 15.3 E 4 5 1017.8 - 0.0 - - - - - - -
29/11:00pm 15.8 E 3 4 1017.8 - 0.0 - - - - - - -
29/10:30pm 16.6 E 3 3 1017.6 - 0.0 - - - - - - -
29/10:00pm 17.2 E 3 4 1017.6 - 0.0 - - - - - - -
29/09:30pm 18.0 E 3 4 1017.7 - 0.0 - - - - - - -
29/09:00pm 18.1 S 3 4 1017.6 - 0.0 - - - - - - -
29/08:30pm 19.2 CALM 0 0 1017.4 - 0.0 - - - - - - -
29/08:00pm 20.5 NNW 1 3 1017.0 - 0.0 - - - - - - -
29/07:30pm 21.1 NNW 2 3 1016.8 - 0.0 - - - - - - -
29/07:00pm 22.2 NNW 2 4 1016.4 - 0.0 - - - - - - -
29/06:30pm 23.4 NNW 3 5 1016.1 - 0.0 - - - - - - -
29/06:00pm 25.2 N 5 9 1015.6 - 0.0 - - - - - - -
29/05:30pm 27.0 NNW 7 11 1015.6 - 0.0 - - - - - - -
29/05:00pm 28.1 NNW 8 13 1015.2 - 0.0 - - - - - - -
29/04:30pm 29.1 NNW 9 13 1015.1 - 0.0 - - - - - - -
29/04:00pm 30.3 NW 10 15 1015.2 - 0.0 - - - - - - -
29/03:30pm 30.9 NW 12 17 1015.1 - 0.0 - - - - - - -
29/03:00pm 31.9 NNW 9 13 1015.0 - 0.0 - - - - - - -
29/02:30pm 32.1 NW 9 15 1015.1 - 0.0 - - - - - - -
29/02:00pm 32.3 NNW 10 16 1015.2 - 0.0 - - - - - - -
29/01:30pm 32.4 NNW 9 13 1015.4 - 0.0 - - - - - - -
29/01:00pm 33.3 S 3 10 1015.7 - 0.0 - - - - - - -
29/12:30pm 32.3 ENE 7 10 1016.0 - 0.0 - - - - - - -
29/12:00pm 32.1 ENE 6 11 1016.4 - 0.0 - - - - - - -
29/11:30am 31.4 SE 4 6 1016.9 - 0.0 - - - - - - -
29/11:00am 30.7 ESE 4 8 1017.2 - 0.0 - - - - - - -
29/10:30am 30.6 SSE 3 6 1017.7 - 0.0 - - - - - - -
29/10:00am 29.6 ESE 5 7 1018.0 - 0.0 - - - - - - -
29/09:30am 28.9 SE 6 10 1017.9 - 0.0 - - - - - - -
29/09:00am 27.1 ESE 6 8 1018.0 - 0.0 - - - - - - -
29/08:30am 24.7 ESE 5 6 1017.8 - 0.0 - - - - - - -
29/08:00am 21.8 ESE 5 6 1017.7 - 0.0 - - - - - - -
29/07:30am 18.4 ESE 5 6 1017.4 - 0.0 - - - - - - -
29/07:00am 14.6 E 5 6 1017.0 - 0.0 - - - - - - -
29/06:30am 12.7 E 6 7 1016.6 - 0.0 - - - - - - -
29/06:00am 13.9 ESE 6 7 1016.3 - 0.0 - - - - - - -
29/05:30am 16.1 SE 8 10 1016.1 - 0.0 - - - - - - -
29/05:00am 14.0 SE 7 7 1016.0 - 0.0 - - - - - - -
29/04:30am 13.1 ESE 4 5 1015.9 - 0.0 - - - - - - -
29/04:00am 13.1 ESE 6 6 1015.6 - 0.0 - - - - - - -
29/03:30am 13.7 ESE 6 6 1015.7 - 0.0 - - - - - - -
29/03:00am 14.1 ESE 5 5 1015.9 - 0.0 - - - - - - -
29/02:30am 14.4 ESE 6 6 1016.0 - 0.0 - - - - - - -
29/02:00am 14.3 ESE 6 7 1016.2 - 0.0 - - - - - - -
29/01:30am 15.7 ESE 6 8 1016.6 - 0.0 - - - - - - -
29/01:00am 15.9 ESE 5 6 1017.0 - 0.0 - - - - - - -
29/12:30am 15.5 SE 4 5 1017.2 - 0.0 - - - - - - -
29/12:00am 15.5 W 5 5 1017.3 - 0.0 - - - - - - -
 
Date/Time
WST
Temp

°C
Wind Pressure Rain
since 9am
mm
Weather Cloud Vis
km
Sea
Height
m
Swell
Dir
 
Speed
knots
Gust
knots
hPa Trend Height
m
Period
s
Dir
28/11:30pm 16.1 W 4 5 1017.5 - 0.0 - - - - - - -
28/11:00pm 16.3 W 4 4 1017.6 - 0.0 - - - - - - -
28/10:30pm 17.2 WNW 2 2 1017.6 - 0.0 - - - - - - -
28/10:00pm 17.9 CALM 0 2 1017.5 - 0.0 - - - - - - -
28/09:30pm 18.2 CALM 0 0 1017.5 - 0.0 - - - - - - -
28/09:00pm 19.7 CALM 0 0 1017.4 - 0.0 - - - - - - -
28/08:30pm 20.7 CALM 0 0 1017.3 - 0.0 - - - - - - -
28/08:00pm 21.6 CALM 0 0 1017.0 - 0.0 - - - - - - -
28/07:30pm 22.5 CALM 0 0 1016.6 - 0.0 - - - - - - -
28/07:00pm 23.3 CALM 0 1 1016.0 - 0.0 - - - - - - -
28/06:30pm 24.4 WNW 2 3 1015.7 - 0.0 - - - - - - -
28/06:00pm 26.7 WNW 4 6 1015.3 - 0.0 - - - - - - -
28/05:30pm 28.4 NW 6 10 1015.1 - 0.0 - - - - - - -
28/05:00pm 29.6 NW 7 11 1014.9 - 0.0 - - - - - - -
28/04:30pm 30.3 NNW 7 11 1014.5 - 0.0 - - - - - - -
28/04:00pm 30.5 NNW 8 13 1014.1 - 0.0 - - - - - - -
28/03:30pm 31.2 NNW 7 13 1014.3 - 0.0 - - - - - - -
28/03:00pm 31.3 NNW 9 15 1014.3 - 0.0 - - - - - - -
28/02:30pm 31.1 NNW 11 17 1014.7 - 0.0 - - - - - - -
28/02:00pm 32.0 NNW 9 16 1015.0 - 0.0 - - - - - - -
28/01:30pm 31.5 NNW 10 17 1015.0 - 0.0 - - - - - - -
28/01:00pm 32.1 WNW 10 15 1015.2 - 0.0 - - - - - - -
28/12:30pm 31.2 NE 6 14 1015.9 - 0.0 - - - - - - -
28/12:00pm 31.1 N 4 5 1016.3 - 0.0 - - - - - - -
28/11:30am 31.4 ENE 3 10 1016.6 - 0.0 - - - - - - -
28/11:00am 30.1 ENE 4 7 1017.1 - 0.0 - - - - - - -
28/10:30am 29.1 E 3 5 1017.4 - 0.0 - - - - - - -
28/10:00am 28.3 ENE 3 5 1017.7 - 0.0 - - - - - - -
28/09:30am 27.6 ESE 4 6 1017.6 - 0.0 - - - - - - -
28/09:00am 25.7 ESE 4 6 1017.7 - 0.0 - - - - - - -
28/08:30am 23.2 SE 4 5 1017.5 - 0.0 - - - - - - -
28/08:00am 20.1 ENE 3 5 1017.4 - 0.0 - - - - - - -
28/07:30am 16.3 ENE 3 6 1017.0 - 0.0 - - - - - - -
28/07:00am 13.4 SSE 4 5 1017.2 - 0.0 - - - - - - -
28/06:30am 12.2 ESE 3 4 1016.9 - 0.0 - - - - - - -
28/06:00am 12.4 SE 5 6 1016.5 - 0.0 - - - - - - -
28/05:30am 13.1 ESE 5 6 1016.4 - 0.0 - - - - - - -
28/05:00am 12.6 E 5 5 1016.3 - 0.0 - - - - - - -
28/04:30am 13.4 ESE 5 6 1016.0 - 0.0 - - - - - - -
28/04:00am 14.3 SE 5 6 1015.9 - 0.0 - - - - - - -
28/03:30am 13.8 SSE 4 4 1016.0 - 0.0 - - - - - - -
28/03:00am 13.8 S 5 6 1016.2 - 0.0 - - - - - - -
28/02:30am 14.5 SSE 4 5 1016.0 - 0.0 - - - - - - -
28/02:00am 14.3 SSE 5 7 1016.0 - 0.0 - - - - - - -
28/01:30am 14.7 SSE 4 5 1016.3 - 0.0 - - - - - - -
28/01:00am 14.6 SE 5 6 1016.5 - 0.0 - - - - - - -
28/12:30am 15.2 ESE 5 5 1016.5 - 0.0 - - - - - - -
28/12:00am 15.6 E 4 5 1016.7 - 0.0 - - - - - - -
 
Date/Time
WST
Temp

°C
Wind Pressure Rain
since 9am
mm
Weather Cloud Vis
km
Sea
Height
m
Swell
Dir
 
Speed
knots
Gust
knots
hPa Trend Height
m
Period
s
Dir
27/11:30pm 15.8 E 4 4 1016.7 - 0.0 - - - - - - -
27/11:00pm 17.0 ENE 4 4 1017.0 - 0.0 - - - - - - -
27/10:30pm 17.4 ENE 6 7 1016.8 - 0.0 - - - - - - -
27/10:00pm 17.7 NE 5 6 1017.0 - 0.0 - - - - - - -
27/09:30pm 18.0 NE 3 4 1017.0 - 0.0 - - - - - - -
27/09:00pm 18.7 NE 2 3 1017.0 - 0.0 - - - - - - -
27/08:30pm 19.9 NNE 5 5 1017.0 - 0.0 - - - - - - -
27/08:00pm 21.3 NNE 1 2 1016.7 - 0.0 - - - - - - -
27/07:30pm 22.4 NNE 2 3 1016.3 - 0.0 - - - - - - -
27/07:00pm 24.0 NNE 6 7 1015.6 - 0.0 - - - - - - -
27/06:30pm 25.4 N 5 7 1015.2 - 0.0 - - - - - - -
27/06:00pm 27.1 N 6 10 1014.8 - 0.0 - - - - - - -
27/05:30pm 28.5 N 9 14 1014.5 - 0.0 - - - - - - -
27/05:00pm 29.5 NNE 15 19 1014.4 - 0.0 - - - - - - -
27/04:30pm 30.3 NNE 15 20 1014.3 - 0.0 - - - - - - -
27/04:00pm 30.7 NNE 14 21 1014.3 - 0.0 - - - - - - -
27/03:30pm 30.9 NNE 16 22 1014.4 - 0.0 - - - - - - -
27/03:00pm 31.5 NNE 15 20 1014.4 - 0.0 - - - - - - -
27/02:30pm 31.8 NNE 14 21 1014.4 - 0.0 - - - - - - -
27/02:00pm 31.9 N 13 20 1014.6 - 0.0 - - - - - - -
27/01:30pm 33.2 N 12 18 1014.8 - 0.0 - - - - - - -
27/01:00pm 32.8 NNE 15 24 1015.0 - 0.0 - - - - - - -
27/12:30pm 32.8 N 10 15 1015.4 - 0.0 - - - - - - -
27/12:00pm 32.2 NE 10 16 1015.9 - 0.0 - - - - - - -
27/11:30am 31.6 NNE 6 13 1016.4 - 0.0 - - - - - - -
27/11:00am 31.0 E 8 11 1017.3 - 0.0 - - - - - - -
27/10:30am 29.8 ESE 9 13 1017.7 - 0.0 - - - - - - -
27/10:00am 29.1 SE 7 11 1017.9 - 0.0 - - - - - - -
27/09:30am 27.8 ESE 6 8 1018.0 - 0.0 - - - - - - -
27/09:00am 26.0 SE 6 8 1018.2 - 0.0 - - - - - - -
27/08:30am 23.8 ESE 6 8 1018.0 - 0.0 - - - - - - -
27/08:00am 20.8 ESE 4 5 1017.8 - 0.0 - - - - - - -
27/07:30am 17.5 SE 4 5 1017.6 - 0.0 - - - - - - -
27/07:00am 13.9 SSE 5 7 1017.1 - 0.0 - - - - - - -
27/06:30am 12.3 SE 6 7 1016.8 - 0.0 - - - - - - -
27/06:00am 12.4 SSE 6 6 1016.5 - 0.0 - - - - - - -
27/05:30am 12.8 SSE 5 6 1016.3 - 0.0 - - - - - - -
27/05:00am 13.3 SSE 6 7 1016.0 - 0.0 - - - - - - -
27/04:30am 13.7 SSE 6 8 1016.0 - 0.0 - - - - - - -
27/04:00am 13.3 SSW 5 7 1015.6 - 0.0 - - - - - - -
27/03:30am 13.6 SSW 4 5 1015.7 - 0.0 - - - - - - -
27/03:00am 14.0 SSW 5 6 1016.0 - 0.0 - - - - - - -
27/02:30am 13.9 SSW 5 5 1016.0 - 0.0 - - - - - - -
27/02:00am 14.3 SSW 5 6 1016.3 - 0.0 - - - - - - -
27/01:30am 14.7 SSW 5 6 1016.6 - 0.0 - - - - - - -
27/01:00am 14.5 SSW 5 6 1016.8 - 0.0 - - - - - - -
27/12:30am 15.2 SSW 4 5 1016.8 - 0.0 - - - - - - -

Other Formats:

Comma delimited format used in spreadsheet applications
http://www.bom.gov.au/fwo/IDW60701/IDW60701.94306.axf

JavaScript Object Notation format (JSON) in row-major order
http://www.bom.gov.au/fwo/IDW60701/IDW60701.94306.json